Wetterdaten: Woche 27.10.14 - 02.11.14 (KW44)
Datum Zeit Temperatur Luftfeuchte Luftdruck Niederschlag Windrichtung Sonnenschein Solar Wind
27.10.2014 00:00 7,6 C 97 % 1024,4 hPa 0,0 l/m NO 0,00 h 0 W/m 9,2 km/h (2 Bft)
27.10.2014 01:00 7,2 C 97 % 1024,8 hPa 0,0 l/m O-NO 0,00 h 0 W/m 8,7 km/h (2 Bft)
27.10.2014 02:00 6,8 C 97 % 1024,6 hPa 0,0 l/m O-NO 0,00 h 0 W/m 10,6 km/h (2 Bft)
27.10.2014 03:00 6,6 C 97 % 1024,6 hPa 0,0 l/m O-NO 0,00 h 0 W/m 9,8 km/h (2 Bft)
27.10.2014 04:00 6,7 C 97 % 1024,8 hPa 0,0 l/m O-NO 0,00 h 0 W/m 9,2 km/h (2 Bft)
27.10.2014 05:00 6,8 C 97 % 1024,8 hPa 0,0 l/m O-NO 0,00 h 0 W/m 9,3 km/h (2 Bft)
27.10.2014 06:00 6,8 C 97 % 1024,8 hPa 0,0 l/m O-NO 0,00 h 0 W/m 10,5 km/h (2 Bft)
27.10.2014 07:00 6,8 C 97 % 1025,0 hPa 0,0 l/m O-SO 0,00 h 8 W/m 11,5 km/h (2 Bft)
27.10.2014 08:00 7,0 C 96 % 1025,2 hPa 0,0 l/m O-SO 0,00 h 21 W/m 9,8 km/h (2 Bft)
27.10.2014 09:00 7,2 C 96 % 1025,3 hPa 0,0 l/m O 0,00 h 37 W/m 10,6 km/h (2 Bft)
27.10.2014 10:00 7,4 C 94 % 1025,4 hPa 0,0 l/m O-NO 0,00 h 54 W/m 9,4 km/h (2 Bft)
27.10.2014 11:00 8,0 C 93 % 1025,1 hPa 0,0 l/m O-SO 0,00 h 85 W/m 12,6 km/h (3 Bft)
27.10.2014 12:00 8,5 C 90 % 1024,4 hPa 0,0 l/m O-SO 0,00 h 96 W/m 14,5 km/h (3 Bft)
27.10.2014 13:00 8,7 C 88 % 1023,9 hPa 0,0 l/m O 0,00 h 115 W/m 14,0 km/h (3 Bft)
27.10.2014 14:00 8,8 C 86 % 1023,4 hPa 0,0 l/m O 0,00 h 134 W/m 13,6 km/h (3 Bft)
27.10.2014 15:00 8,7 C 85 % 1023,2 hPa 0,0 l/m O-SO 0,25 h 109 W/m 12,5 km/h (3 Bft)
27.10.2014 16:00 8,4 C 85 % 1023,1 hPa 0,0 l/m O-NO 0,08 h 38 W/m 14,2 km/h (3 Bft)
27.10.2014 17:00 7,7 C 86 % 1023,3 hPa 0,0 l/m O-NO 0,00 h 5 W/m 13,0 km/h (3 Bft)
27.10.2014 18:00 7,1 C 87 % 1023,6 hPa 0,0 l/m O-NO 0,00 h 0 W/m 13,7 km/h (3 Bft)
27.10.2014 19:00 6,8 C 88 % 1023,5 hPa 0,0 l/m O-NO 0,00 h 0 W/m 11,3 km/h (2 Bft)
27.10.2014 20:00 6,5 C 88 % 1023,3 hPa 0,0 l/m O 0,00 h 0 W/m 11,7 km/h (2 Bft)
27.10.2014 21:00 6,3 C 89 % 1023,1 hPa 0,0 l/m O 0,00 h 0 W/m 11,7 km/h (2 Bft)
27.10.2014 22:00 6,1 C 90 % 1022,9 hPa 0,0 l/m O 0,00 h 0 W/m 10,3 km/h (2 Bft)
27.10.2014 23:00 5,9 C 91 % 1022,5 hPa 0,0 l/m O 0,00 h 0 W/m 10,3 km/h (2 Bft)
28.10.2014 00:00 5,7 C 92 % 1022,2 hPa 0,0 l/m O 0,00 h 0 W/m 7,9 km/h (2 Bft)
28.10.2014 01:00 5,6 C 93 % 1021,9 hPa 0,0 l/m O 0,00 h 0 W/m 8,0 km/h (2 Bft)
28.10.2014 02:00 5,6 C 94 % 1021,7 hPa 0,0 l/m O 0,00 h 0 W/m 5,1 km/h (1 Bft)
28.10.2014 03:00 5,5 C 94 % 1021,2 hPa 0,0 l/m O 0,00 h 0 W/m 2,5 km/h (1 Bft)
28.10.2014 04:00 5,4 C 95 % 1021,2 hPa 0,0 l/m N 0,00 h 0 W/m 2,1 km/h (1 Bft)
28.10.2014 05:00 5,3 C 95 % 1021,2 hPa 0,0 l/m N 0,00 h 0 W/m 0,3 km/h (0 Bft)
28.10.2014 06:00 5,4 C 96 % 1021,0 hPa 0,0 l/m O 0,00 h 0 W/m 2,3 km/h (1 Bft)
28.10.2014 07:00 5,5 C 96 % 1021,2 hPa 0,0 l/m O 0,00 h 10 W/m 3,7 km/h (1 Bft)
28.10.2014 08:00 5,7 C 96 % 1021,2 hPa 0,0 l/m N 0,00 h 28 W/m 1,1 km/h (0 Bft)
28.10.2014 09:00 6,1 C 97 % 1020,9 hPa 0,0 l/m O 0,00 h 76 W/m 2,1 km/h (1 Bft)
28.10.2014 10:00 7,1 C 97 % 1020,8 hPa 0,0 l/m N 0,00 h 96 W/m 2,4 km/h (1 Bft)
28.10.2014 11:00 8,2 C 93 % 1020,3 hPa 0,0 l/m O 0,00 h 122 W/m 3,7 km/h (1 Bft)
28.10.2014 12:00 9,4 C 88 % 1019,4 hPa 0,0 l/m O-SO 0,00 h 139 W/m 6,1 km/h (2 Bft)
28.10.2014 13:00 10,2 C 84 % 1018,8 hPa 0,0 l/m S 0,00 h 100 W/m 6,3 km/h (2 Bft)
28.10.2014 14:00 10,2 C 83 % 1018,2 hPa 0,0 l/m S-SW 0,00 h 61 W/m 7,5 km/h (2 Bft)
28.10.2014 15:00 10,3 C 81 % 1017,7 hPa 0,0 l/m W-SW 0,00 h 50 W/m 6,6 km/h (2 Bft)
28.10.2014 16:00 10,3 C 82 % 1017,5 hPa 0,0 l/m W-SW 0,00 h 23 W/m 2,3 km/h (1 Bft)
28.10.2014 17:00 9,6 C 82 % 1017,5 hPa 0,0 l/m N 0,00 h 6 W/m 1,2 km/h (1 Bft)
28.10.2014 18:00 7,6 C 85 % 1017,6 hPa 0,0 l/m N 0,00 h 0 W/m 0,8 km/h (0 Bft)
28.10.2014 19:00 6,1 C 88 % 1017,7 hPa 0,0 l/m N 0,00 h 0 W/m 0,7 km/h (0 Bft)
28.10.2014 20:00 5,0 C 89 % 1017,8 hPa 0,0 l/m N 0,00 h 0 W/m 0,0 km/h (0 Bft)
28.10.2014 21:00 4,1 C 90 % 1017,8 hPa 0,0 l/m N 0,00 h 0 W/m 0,0 km/h (0 Bft)
28.10.2014 22:00 3,4 C 91 % 1017,7 hPa 0,0 l/m N 0,00 h 0 W/m 0,0 km/h (0 Bft)
28.10.2014 23:00 2,9 C 92 % 1017,8 hPa 0,0 l/m N 0,00 h 0 W/m 0,5 km/h (0 Bft)
29.10.2014 00:00 2,6 C 94 % 1017,8 hPa 0,0 l/m N 0,00 h 0 W/m 0,4 km/h (0 Bft)
29.10.2014 01:00 2,4 C 94 % 1017,7 hPa 0,0 l/m N 0,00 h 0 W/m 0,0 km/h (0 Bft)
29.10.2014 02:00 1,9 C 94 % 1017,5 hPa 0,0 l/m N 0,00 h 0 W/m 0,0 km/h (0 Bft)
29.10.2014 03:00 1,6 C 95 % 1017,4 hPa 0,0 l/m N 0,00 h 0 W/m 0,0 km/h (0 Bft)
29.10.2014 04:00 1,4 C 95 % 1017,5 hPa 0,0 l/m N 0,00 h 0 W/m 0,4 km/h (0 Bft)
29.10.2014 05:00 1,7 C 96 % 1017,7 hPa 0,0 l/m N 0,00 h 0 W/m 0,3 km/h (0 Bft)
29.10.2014 06:00 1,4 C 96 % 1017,9 hPa 0,0 l/m N 0,00 h 0 W/m 0,0 km/h (0 Bft)
29.10.2014 07:00 1,7 C 97 % 1018,6 hPa 0,0 l/m W-SW 0,00 h 10 W/m 1,1 km/h (0 Bft)
29.10.2014 08:00 2,9 C 97 % 1019,0 hPa 0,0 l/m W-SW 0,00 h 36 W/m 0,3 km/h (0 Bft)
29.10.2014 09:00 4,8 C 98 % 1019,3 hPa 0,0 l/m N 0,00 h 90 W/m 2,0 km/h (1 Bft)
29.10.2014 10:00 8,9 C 96 % 1019,2 hPa 0,0 l/m SW 0,67 h 319 W/m 10,1 km/h (2 Bft)
29.10.2014 11:00 11,6 C 87 % 1018,8 hPa 0,0 l/m W 1,00 h 479 W/m 14,4 km/h (3 Bft)
29.10.2014 12:00 12,4 C 80 % 1018,3 hPa 0,0 l/m W 0,92 h 415 W/m 14,1 km/h (3 Bft)
29.10.2014 13:00 13,2 C 77 % 1017,7 hPa 0,0 l/m W 0,92 h 403 W/m 15,2 km/h (3 Bft)
29.10.2014 14:00 13,7 C 72 % 1017,7 hPa 0,0 l/m W 1,00 h 345 W/m 14,2 km/h (3 Bft)
29.10.2014 15:00 13,5 C 74 % 1017,8 hPa 0,0 l/m W-SW 1,00 h 210 W/m 11,4 km/h (2 Bft)
29.10.2014 16:00 12,8 C 77 % 1017,8 hPa 0,0 l/m W-SW 0,42 h 47 W/m 7,6 km/h (2 Bft)
29.10.2014 17:00 11,3 C 81 % 1018,3 hPa 0,0 l/m W-SW 0,00 h 6 W/m 3,7 km/h (1 Bft)
29.10.2014 18:00 9,4 C 84 % 1018,8 hPa 0,0 l/m N 0,00 h 0 W/m 0,0 km/h (0 Bft)
29.10.2014 19:00 7,8 C 86 % 1019,3 hPa 0,0 l/m N 0,00 h 0 W/m 0,1 km/h (0 Bft)
29.10.2014 20:00 6,5 C 88 % 1019,7 hPa 0,0 l/m N 0,00 h 0 W/m 0,0 km/h (0 Bft)
29.10.2014 21:00 5,4 C 90 % 1020,3 hPa 0,0 l/m N 0,00 h 0 W/m 0,1 km/h (0 Bft)
29.10.2014 22:00 4,8 C 92 % 1020,6 hPa 0,0 l/m N 0,00 h 0 W/m 0,8 km/h (0 Bft)
29.10.2014 23:00 4,4 C 93 % 1021,1 hPa 0,0 l/m N 0,00 h 0 W/m 0,1 km/h (0 Bft)
30.10.2014 00:00 4,3 C 94 % 1021,3 hPa 0,0 l/m N 0,00 h 0 W/m 0,0 km/h (0 Bft)
30.10.2014 01:00 3,8 C 95 % 1021,5 hPa 0,0 l/m N 0,00 h 0 W/m 0,0 km/h (0 Bft)
30.10.2014 02:00 3,3 C 95 % 1021,7 hPa 0,0 l/m N 0,00 h 0 W/m 0,3 km/h (0 Bft)
30.10.2014 03:00 3,6 C 96 % 1021,7 hPa 0,0 l/m N 0,00 h 0 W/m 0,0 km/h (0 Bft)
30.10.2014 04:00 4,5 C 97 % 1021,9 hPa 0,0 l/m N 0,00 h 0 W/m 0,0 km/h (0 Bft)
30.10.2014 05:00 5,3 C 98 % 1022,3 hPa 0,4 l/m N 0,00 h 0 W/m 0,4 km/h (0 Bft)
30.10.2014 06:00 5,9 C 98 % 1022,8 hPa 0,0 l/m N 0,00 h 0 W/m 0,3 km/h (0 Bft)
30.10.2014 07:00 6,2 C 98 % 1023,4 hPa 0,0 l/m N 0,00 h 7 W/m 0,4 km/h (0 Bft)
30.10.2014 08:00 6,6 C 98 % 1023,8 hPa 0,0 l/m W-SW 0,00 h 40 W/m 3,1 km/h (1 Bft)
30.10.2014 09:00 7,6 C 98 % 1023,9 hPa 0,0 l/m W-SW 0,08 h 100 W/m 4,7 km/h (1 Bft)
30.10.2014 10:00 9,9 C 89 % 1024,2 hPa 0,0 l/m W-SW 0,08 h 187 W/m 4,3 km/h (1 Bft)
30.10.2014 11:00 11,8 C 81 % 1024,2 hPa 0,0 l/m W-SW 0,67 h 328 W/m 4,9 km/h (1 Bft)
30.10.2014 12:00 13,5 C 75 % 1024,0 hPa 0,0 l/m W-SW 1,00 h 455 W/m 7,1 km/h (2 Bft)
30.10.2014 13:00 14,4 C 71 % 1023,9 hPa 0,0 l/m SO 0,42 h 241 W/m 5,5 km/h (1 Bft)
30.10.2014 14:00 14,4 C 73 % 1023,8 hPa 0,0 l/m O-NO 0,58 h 275 W/m 6,5 km/h (2 Bft)
30.10.2014 15:00 14,3 C 75 % 1023,9 hPa 0,2 l/m O 1,00 h 177 W/m 5,1 km/h (1 Bft)
30.10.2014 16:00 13,8 C 78 % 1024,1 hPa 0,0 l/m O 0,83 h 50 W/m 3,3 km/h (1 Bft)
30.10.2014 17:00 12,8 C 82 % 1024,6 hPa 0,0 l/m N 0,00 h 6 W/m 1,3 km/h (1 Bft)
30.10.2014 18:00 10,9 C 85 % 1025,0 hPa 0,0 l/m N 0,00 h 0 W/m 1,1 km/h (0 Bft)
30.10.2014 19:00 9,5 C 88 % 1025,1 hPa 0,0 l/m N 0,00 h 0 W/m 1,2 km/h (1 Bft)
30.10.2014 20:00 8,8 C 91 % 1025,3 hPa 0,0 l/m N 0,00 h 0 W/m 1,3 km/h (1 Bft)
30.10.2014 21:00 8,2 C 93 % 1025,5 hPa 0,0 l/m N 0,00 h 0 W/m 0,7 km/h (0 Bft)
30.10.2014 22:00 7,6 C 93 % 1025,7 hPa 0,0 l/m N 0,00 h 0 W/m 1,6 km/h (1 Bft)
30.10.2014 23:00 6,9 C 93 % 1025,6 hPa 0,0 l/m N 0,00 h 0 W/m 0,1 km/h (0 Bft)
31.10.2014 00:00 6,2 C 93 % 1025,7 hPa 0,0 l/m N 0,00 h 0 W/m 0,7 km/h (0 Bft)
31.10.2014 01:00 5,6 C 94 % 1025,6 hPa 0,0 l/m N 0,00 h 0 W/m 2,7 km/h (1 Bft)
31.10.2014 02:00 5,7 C 96 % 1025,6 hPa 0,0 l/m O-NO 0,00 h 0 W/m 4,3 km/h (1 Bft)
31.10.2014 03:00 6,1 C 97 % 1025,5 hPa 0,0 l/m O-NO 0,00 h 0 W/m 3,1 km/h (1 Bft)
31.10.2014 04:00 6,0 C 97 % 1025,4 hPa 0,0 l/m N 0,00 h 0 W/m 2,1 km/h (1 Bft)
31.10.2014 05:00 5,9 C 97 % 1025,2 hPa 0,0 l/m O-NO 0,00 h 0 W/m 1,7 km/h (1 Bft)
31.10.2014 06:00 5,6 C 97 % 1025,2 hPa 0,0 l/m O-NO 0,00 h 0 W/m 2,3 km/h (1 Bft)
31.10.2014 07:00 5,4 C 98 % 1025,4 hPa 0,0 l/m N 0,00 h 13 W/m 1,1 km/h (0 Bft)
31.10.2014 08:00 5,5 C 98 % 1026,0 hPa 0,0 l/m O-NO 0,00 h 50 W/m 4,3 km/h (1 Bft)
31.10.2014 09:00 6,3 C 98 % 1026,3 hPa 0,0 l/m N 0,00 h 108 W/m 2,1 km/h (1 Bft)
31.10.2014 10:00 7,6 C 98 % 1026,3 hPa 0,0 l/m O-NO 0,75 h 291 W/m 2,4 km/h (1 Bft)
31.10.2014 11:00 10,2 C 90 % 1026,0 hPa 0,0 l/m N 0,08 h 204 W/m 1,7 km/h (1 Bft)
31.10.2014 12:00 12,0 C 82 % 1025,7 hPa 0,0 l/m N 0,83 h 299 W/m 1,2 km/h (1 Bft)
31.10.2014 13:00 13,6 C 76 % 1025,2 hPa 0,0 l/m O-NO 1,00 h 366 W/m 3,5 km/h (1 Bft)
31.10.2014 14:00 14,8 C 75 % 1024,6 hPa 0,0 l/m N 1,00 h 267 W/m 2,7 km/h (1 Bft)
31.10.2014 15:00 15,2 C 73 % 1024,3 hPa 0,0 l/m N 1,00 h 210 W/m 2,5 km/h (1 Bft)
31.10.2014 16:00 14,8 C 79 % 1024,2 hPa 0,0 l/m O-NO 0,75 h 56 W/m 5,2 km/h (1 Bft)
31.10.2014 17:00 13,3 C 82 % 1024,5 hPa 0,0 l/m O-NO 0,00 h 5 W/m 4,5 km/h (1 Bft)
31.10.2014 18:00 11,4 C 85 % 1024,7 hPa 0,0 l/m N 0,00 h 0 W/m 1,5 km/h (1 Bft)
31.10.2014 19:00 10,0 C 89 % 1024,5 hPa 0,0 l/m O-NO 0,00 h 0 W/m 2,3 km/h (1 Bft)
31.10.2014 20:00 9,3 C 93 % 1024,6 hPa 0,0 l/m NO 0,00 h 0 W/m 5,3 km/h (1 Bft)
31.10.2014 21:00 8,9 C 94 % 1024,6 hPa 0,0 l/m NO 0,00 h 0 W/m 1,9 km/h (1 Bft)
31.10.2014 22:00 8,2 C 94 % 1024,5 hPa 0,0 l/m NO 0,00 h 0 W/m 2,8 km/h (1 Bft)
31.10.2014 23:00 7,9 C 95 % 1024,5 hPa 0,0 l/m NO 0,00 h 0 W/m 4,5 km/h (1 Bft)
01.11.2014 00:00 7,7 C 96 % 1024,3 hPa 0,0 l/m N 0,00 h 0 W/m 0,8 km/h (0 Bft)
01.11.2014 01:00 7,3 C 96 % 1023,9 hPa 0,0 l/m N 0,00 h 0 W/m 0,0 km/h (0 Bft)
01.11.2014 02:00 6,7 C 96 % 1023,6 hPa 0,0 l/m NO 0,00 h 0 W/m 1,6 km/h (1 Bft)
01.11.2014 03:00 6,2 C 96 % 1023,1 hPa 0,0 l/m N 0,00 h 0 W/m 4,7 km/h (1 Bft)
01.11.2014 04:00 5,8 C 96 % 1023,0 hPa 0,2 l/m N 0,00 h 0 W/m 1,7 km/h (1 Bft)
01.11.2014 05:00 5,5 C 97 % 1023,0 hPa 0,0 l/m N 0,00 h 0 W/m 2,3 km/h (1 Bft)
01.11.2014 06:00 5,0 C 97 % 1023,0 hPa 0,0 l/m N 0,00 h 0 W/m 1,1 km/h (0 Bft)
01.11.2014 07:00 4,4 C 96 % 1023,1 hPa 0,0 l/m N 0,00 h 15 W/m 0,0 km/h (0 Bft)
01.11.2014 08:00 4,9 C 98 % 1023,3 hPa 0,0 l/m N 0,25 h 92 W/m 0,5 km/h (0 Bft)
01.11.2014 09:00 6,8 C 98 % 1023,5 hPa 0,0 l/m N 0,92 h 230 W/m 2,4 km/h (1 Bft)
01.11.2014 10:00 8,4 C 97 % 1023,5 hPa 0,0 l/m N 1,00 h 358 W/m 3,3 km/h (1 Bft)
01.11.2014 11:00 11,3 C 89 % 1023,2 hPa 0,0 l/m N 1,00 h 428 W/m 7,8 km/h (2 Bft)
01.11.2014 12:00 12,5 C 84 % 1022,6 hPa 0,0 l/m S-SW 1,00 h 455 W/m 10,2 km/h (2 Bft)
01.11.2014 13:00 14,0 C 78 % 1021,9 hPa 0,0 l/m S-SW 1,00 h 432 W/m 8,3 km/h (2 Bft)
01.11.2014 14:00 14,6 C 78 % 1021,7 hPa 0,0 l/m S 1,00 h 272 W/m 8,4 km/h (2 Bft)
01.11.2014 15:00 14,0 C 80 % 1021,4 hPa 0,0 l/m S-SW 1,00 h 196 W/m 8,0 km/h (2 Bft)
01.11.2014 16:00 13,3 C 82 % 1021,3 hPa 0,0 l/m S-SW 0,42 h 40 W/m 3,7 km/h (1 Bft)
01.11.2014 17:00 11,5 C 83 % 1021,5 hPa 0,0 l/m N 0,00 h 6 W/m 0,0 km/h (0 Bft)
01.11.2014 18:00 9,4 C 86 % 1021,7 hPa 0,0 l/m N 0,00 h 0 W/m 0,0 km/h (0 Bft)
01.11.2014 19:00 7,9 C 88 % 1021,7 hPa 0,0 l/m N 0,00 h 0 W/m 0,0 km/h (0 Bft)
01.11.2014 20:00 6,8 C 90 % 1021,8 hPa 0,0 l/m N 0,00 h 0 W/m 0,0 km/h (0 Bft)
01.11.2014 21:00 6,4 C 92 % 1022,0 hPa 0,0 l/m N 0,00 h 0 W/m 0,0 km/h (0 Bft)
01.11.2014 22:00 5,9 C 93 % 1021,8 hPa 0,0 l/m N 0,00 h 0 W/m 0,0 km/h (0 Bft)
01.11.2014 23:00 5,1 C 93 % 1021,4 hPa 0,0 l/m N 0,00 h 0 W/m 0,0 km/h (0 Bft)
02.11.2014 00:00 4,5 C 93 % 1021,1 hPa 0,0 l/m N 0,00 h 0 W/m 0,0 km/h (0 Bft)
02.11.2014 01:00 3,9 C 94 % 1020,8 hPa 0,0 l/m N 0,00 h 0 W/m 0,0 km/h (0 Bft)
02.11.2014 02:00 3,3 C 94 % 1020,5 hPa 0,0 l/m N 0,00 h 0 W/m 0,0 km/h (0 Bft)
02.11.2014 03:00 3,1 C 95 % 1020,4 hPa 0,0 l/m S-SW 0,00 h 0 W/m 3,5 km/h (1 Bft)
02.11.2014 04:00 3,2 C 96 % 1020,4 hPa 0,0 l/m S-SW 0,00 h 0 W/m 5,1 km/h (1 Bft)
02.11.2014 05:00 3,0 C 97 % 1020,1 hPa 0,0 l/m N 0,00 h 0 W/m 1,9 km/h (1 Bft)
02.11.2014 06:00 3,8 C 97 % 1020,0 hPa 0,0 l/m S-SW 0,00 h 0 W/m 3,6 km/h (1 Bft)
02.11.2014 07:00 4,0 C 97 % 1020,1 hPa 0,0 l/m N 0,08 h 22 W/m 0,7 km/h (0 Bft)
02.11.2014 08:00 4,6 C 98 % 1020,1 hPa 0,0 l/m S-SW 0,00 h 72 W/m 0,5 km/h (0 Bft)
02.11.2014 09:00 6,0 C 98 % 1019,9 hPa 0,0 l/m S-SW 0,92 h 224 W/m 5,6 km/h (1 Bft)
02.11.2014 10:00 7,7 C 99 % 1019,5 hPa 0,0 l/m S-SW 1,00 h 348 W/m 10,2 km/h (2 Bft)
02.11.2014 11:00 10,2 C 96 % 1019,0 hPa 0,0 l/m S-SW 1,00 h 409 W/m 9,7 km/h (2 Bft)
02.11.2014 12:00 12,7 C 86 % 1018,1 hPa 0,0 l/m SW 1,00 h 434 W/m 10,6 km/h (2 Bft)
02.11.2014 13:00 13,6 C 83 % 1017,3 hPa 0,0 l/m S-SW 0,92 h 393 W/m 11,6 km/h (2 Bft)
02.11.2014 14:00 14,7 C 79 % 1016,6 hPa 0,0 l/m S-SW 0,92 h 291 W/m 10,3 km/h (2 Bft)
02.11.2014 15:00 14,0 C 81 % 1016,2 hPa 0,0 l/m S-SW 0,67 h 161 W/m 10,1 km/h (2 Bft)
02.11.2014 16:00 13,2 C 82 % 1015,8 hPa 0,0 l/m S-SW 0,58 h 43 W/m 6,7 km/h (2 Bft)
02.11.2014 17:00 11,8 C 84 % 1015,5 hPa 0,0 l/m N 0,00 h 7 W/m 0,8 km/h (0 Bft)
02.11.2014 18:00 9,9 C 86 % 1015,5 hPa 0,0 l/m N 0,00 h 0 W/m 0,0 km/h (0 Bft)
02.11.2014 19:00 8,4 C 89 % 1015,4 hPa 0,0 l/m N 0,00 h 0 W/m 0,3 km/h (0 Bft)
02.11.2014 20:00 7,4 C 91 % 1015,1 hPa 0,0 l/m S-SW 0,00 h 0 W/m 1,2 km/h (1 Bft)
02.11.2014 21:00 6,7 C 92 % 1014,8 hPa 0,0 l/m N 0,00 h 0 W/m 0,5 km/h (0 Bft)
02.11.2014 22:00 6,0 C 93 % 1014,6 hPa 0,0 l/m SW 0,00 h 0 W/m 0,5 km/h (0 Bft)
02.11.2014 23:00 5,5 C 94 % 1014,4 hPa 0,0 l/m N 0,00 h 0 W/m 0,0 km/h (0 Bft)
Min-Datum _ 29.10.14 30.10.14 02.11.14 - - - - 28.10.14
_ Min-Zeit 04:05 13:10 23:50 - - - - 03:15
Minimum _ 1,3 C 69 % 1014,2 hPa - - - - 0,0 km/h (0 Bft)
Max-Datum _ 31.10.14 01.11.14 31.10.14 30.10.14 - 27.10.14 30.10.14 29.10.14
_ Max-Zeit 15:35 01:05 09:50 05:05 - 15:05 13:00 13:25
Maximum _ 15,4 C 100 % 1026,5 hPa 0,4 l/m - 0,08 h 598 W/m 22,5 km/h
W (4 Bft)
Durchschnitt _ 7,7 C 90 % 1021,7 hPa #0,8 l/m O-NO #31:00 h 161 W/m 4,3 km/h (1 Bft)